Latest Weather Observations for Ngayawili (Elcho Island)

IDD60801

Issued at 9:35 am CST Saturday 30 August 2014 (issued every 30 minutes, with the page automatically refreshed every 10 minutes)

About weather observations | Map of weather stations | Latest weather observations for NT | Other Formats
Station Details ID: 014517 Name: NGAYAWILI Lat: -12.00 Lon: 135.57 Height: 8.1 m
Data from the previous 72 hours. | See also: Recent months at Ngayawili (Elcho Island)
Date/Time
CST
Temp
°C
App
Temp
°C
Dew
Point
Rel
Hum
%
Delta-T
°C
Wind Press
QNH
hPa
Press
MSL
hPa
Rain
since 9 am
mm
Dir
 
Spd
km/h
Gust
km/h
Spd
kts
Gust
kts
30/09:30am 25.0 25.0 18.0 65 4.4 E 15 24 8 13 1015.9 - 0.0
30/09:00am 23.5 24.4 20.0 81 2.3 E 15 24 8 13 1015.8 1015.7 0.0
30/08:30am 21.8 22.8 21.0 95 0.5 SE 17 26 9 14 1015.7 - 0.0
30/08:00am 20.3 20.9 20.3 100 0.0 ESE 17 24 9 13 1015.3 - 0.0
30/07:30am 20.2 21.2 20.2 100 0.0 SE 15 20 8 11 1014.8 - 0.0
30/07:00am 20.0 20.8 19.8 99 0.1 SE 15 19 8 10 1014.3 - 0.0
30/06:30am 20.2 21.4 19.9 98 0.2 ESE 13 17 7 9 1014.0 - 0.0
30/06:00am 20.4 22.0 19.9 97 0.3 SE 11 15 6 8 1013.8 1013.7 0.0
30/05:30am 21.0 22.8 20.3 96 0.4 SE 11 19 6 10 1013.6 - 0.0
30/05:00am 21.2 22.5 20.2 94 0.6 ESE 13 20 7 11 1013.4 - 0.0
30/04:30am 21.3 22.5 19.9 92 0.9 ESE 13 19 7 10 1013.3 - 0.0
30/04:00am 21.6 23.2 19.9 90 1.1 ESE 11 17 6 9 1013.4 - 0.0
30/03:30am 21.7 23.1 19.6 88 1.3 ESE 11 17 6 9 1013.4 - 0.0
30/03:00am 21.9 23.3 19.5 86 1.5 ESE 11 19 6 10 1013.5 1013.4 0.0
30/02:30am 22.0 23.3 19.4 85 1.7 ESE 11 17 6 9 1013.8 - 0.0
30/02:00am 22.1 23.2 18.9 82 2.0 ESE 11 15 6 8 1014.1 - 0.0
30/01:30am 22.2 23.2 18.6 80 2.3 SE 11 17 6 9 1014.1 - 0.0
30/01:00am 22.3 22.8 18.3 78 2.5 ESE 13 17 7 9 1014.3 - 0.0
30/12:30am 22.7 22.7 18.0 75 2.9 SE 15 20 8 11 1014.4 - 0.0
30/12:00am 22.9 22.8 17.8 73 3.2 SE 15 22 8 12 1014.6 1014.5 0.0
 
Date/Time
CST
Temp
°C
App
Temp
°C
Dew
Point
Rel
Hum
%
Delta-T
°C
Wind Press
QNH
hPa
Press
MSL
hPa
Rain
since 9 am
mm
Dir
 
Spd
km/h
Gust
km/h
Spd
kts
Gust
kts
29/11:30pm 23.2 23.0 17.6 71 3.5 SE 15 24 8 13 1014.7 - 0.0
29/11:00pm 23.3 23.0 17.3 69 3.7 SE 15 20 8 11 1014.7 - 0.0
29/10:30pm 23.7 23.3 17.2 67 4.0 ESE 15 24 8 13 1014.5 - 0.0
29/10:00pm 23.8 23.8 17.1 66 4.1 ESE 13 20 7 11 1014.2 - 0.0
29/09:30pm 24.2 23.8 16.2 61 4.9 ESE 13 19 7 10 1014.5 - 0.0
29/09:00pm 24.5 23.8 15.4 57 5.5 E 13 20 7 11 1014.2 1014.1 0.0
29/08:30pm 24.8 23.9 14.9 54 5.9 ESE 13 20 7 11 1014.1 - 0.0
29/08:00pm 25.1 24.4 14.3 51 6.4 ESE 11 17 6 9 1013.9 - 0.0
29/07:30pm 25.4 25.0 14.2 50 6.6 ESE 9 15 5 8 1013.7 - 0.0
29/07:00pm 25.6 25.3 14.4 50 6.7 E 9 15 5 8 1013.4 - 0.0
29/06:30pm 26.0 26.2 14.8 50 6.7 E 7 9 4 5 1012.9 - 0.0
29/06:00pm 26.8 26.4 14.2 46 7.5 E 9 15 5 8 1012.6 1012.5 0.0
29/05:30pm 27.5 26.5 13.4 41 8.3 E 11 19 6 10 1012.4 - 0.0
29/05:00pm 28.3 27.2 13.0 39 9.0 E 11 17 6 9 1012.2 - 0.0
29/04:30pm 29.1 27.9 11.6 33 10.1 E 9 19 5 10 1011.9 - 0.0
29/04:00pm 29.4 27.3 11.0 32 10.5 E 13 20 7 11 1011.9 - 0.0
29/03:30pm 29.5 27.0 11.1 32 10.6 ESE 15 24 8 13 1012.0 - 0.0
29/03:00pm 29.6 26.9 10.2 30 11.0 E 15 28 8 15 1012.1 1012.0 0.0
29/02:30pm 29.7 26.0 10.3 30 11.0 ESE 20 32 11 17 1012.4 - 0.0
29/02:00pm 29.4 25.6 9.0 28 11.3 ESE 19 30 10 16 1012.9 - 0.0
29/01:30pm 30.3 26.2 8.7 26 12.0 ESE 20 37 11 20 1013.1 - 0.0
29/01:00pm 29.3 24.2 7.8 26 11.7 ESE 24 37 13 20 1013.3 - 0.0
29/12:30pm 30.0 25.7 9.5 28 11.5 E 22 41 12 22 1013.7 - 0.0
29/12:00pm 28.9 24.5 9.1 29 11.0 ESE 22 39 12 21 1014.3 1014.2 0.0
29/11:30am 28.2 24.1 8.5 29 10.8 ESE 20 35 11 19 1014.8 - 0.0
29/11:00am 28.7 24.4 7.9 27 11.3 ESE 20 33 11 18 1015.0 - 0.0
29/10:30am 27.9 23.8 8.7 30 10.5 ESE 20 32 11 17 1015.3 - 0.0
29/10:00am 26.2 25.0 14.0 47 7.2 SE 13 24 7 13 1015.5 - 0.0
29/09:30am 24.2 23.0 15.1 56 5.4 ESE 15 24 8 13 1015.5 - 0.0
29/09:00am 22.5 22.1 16.1 67 3.9 ESE 13 20 7 11 1015.6 1015.5 0.0
29/08:30am 21.3 20.5 16.0 72 3.2 SE 15 24 8 13 1015.3 - 0.0
29/08:00am 19.8 19.6 17.6 87 1.3 SE 15 20 8 11 1015.1 - 0.0
29/07:30am 18.9 19.2 17.9 94 0.6 SE 13 19 7 10 1015.1 - 0.0
29/07:00am 18.3 18.7 18.1 99 0.1 SE 13 20 7 11 1014.8 - 0.0
29/06:30am 17.9 18.5 17.6 98 0.2 SE 11 15 6 8 1014.4 - 0.0
29/06:00am 17.9 19.1 17.4 97 0.3 SE 7 11 4 6 1014.2 1014.1 0.0
29/05:30am 18.2 18.8 17.6 96 0.4 SE 11 17 6 9 1013.7 - 0.0
29/05:00am 18.4 18.5 17.4 94 0.6 SE 13 20 7 11 1013.5 - 0.0
29/04:30am 18.8 19.1 17.8 94 0.6 SE 13 19 7 10 1013.6 - 0.0
29/04:00am 18.8 18.7 17.8 94 0.6 SSE 15 20 8 11 1013.4 - 0.0
29/03:30am 18.7 18.8 17.5 93 0.7 SSE 13 15 7 8 1013.5 - 0.0
29/03:00am 19.0 19.9 17.5 91 0.9 SE 9 13 5 7 1013.5 1013.4 0.0
29/02:30am 19.3 20.3 17.8 91 0.9 SSE 9 15 5 8 1013.7 - 0.0
29/02:00am 19.0 19.8 17.3 90 1.0 SSE 9 13 5 7 1013.8 - 0.0
29/01:30am 18.7 19.3 16.7 88 1.2 S 9 13 5 7 1014.0 - 0.0
29/01:00am 19.3 20.1 16.3 83 1.8 S 7 11 4 6 1014.1 - 0.0
29/12:30am 20.3 20.9 16.9 81 2.1 S 9 15 5 8 1014.4 - 0.0
29/12:00am 21.1 21.1 17.1 78 2.4 SE 13 20 7 11 1014.7 1014.6 0.0
 
Date/Time
CST
Temp
°C
App
Temp
°C
Dew
Point
Rel
Hum
%
Delta-T
°C
Wind Press
QNH
hPa
Press
MSL
hPa
Rain
since 9 am
mm
Dir
 
Spd
km/h
Gust
km/h
Spd
kts
Gust
kts
28/11:30pm 21.3 21.2 16.9 76 2.7 SSE 13 20 7 11 1014.9 - 0.0
28/11:00pm 21.6 21.0 16.6 73 3.0 SE 15 22 8 12 1014.9 - 0.0
28/10:30pm 21.9 21.1 16.0 69 3.6 SE 15 30 8 16 1015.1 - 0.0
28/10:00pm 22.1 21.4 15.5 66 3.9 SE 13 19 7 10 1015.0 - 0.0
28/09:30pm 22.5 22.2 15.4 64 4.2 SE 11 20 6 11 1015.0 - 0.0
28/09:00pm 22.9 22.4 15.0 61 4.7 ESE 11 20 6 11 1014.7 1014.6 0.0
28/08:30pm 23.4 22.3 14.4 57 5.3 ESE 13 20 7 11 1014.6 - 0.0
28/08:00pm 23.9 22.6 13.7 53 6.0 ESE 13 19 7 10 1014.3 - 0.0
28/07:30pm 24.5 23.0 13.1 49 6.6 ESE 13 24 7 13 1014.1 - 0.0
28/07:00pm 24.9 23.5 12.2 45 7.3 E 11 19 6 10 1013.6 - 0.0
28/06:30pm 25.6 23.6 11.4 41 8.0 E 13 19 7 10 1013.2 - 0.0
28/06:00pm 27.0 24.9 11.1 37 9.0 ESE 13 24 7 13 1012.8 1012.7 0.0
28/05:30pm 28.2 25.6 9.5 31 10.4 ESE 13 22 7 12 1012.5 - 0.0
28/05:00pm 28.9 25.0 8.6 28 11.2 ESE 19 30 10 16 1012.3 - 0.0
28/04:30pm 29.4 25.7 9.5 29 11.1 E 19 32 10 17 1012.1 - 0.0
28/04:00pm 29.6 25.8 9.7 29 11.2 E 20 30 11 16 1011.9 - 0.0
28/03:30pm 29.7 25.9 9.8 29 11.2 E 20 35 11 19 1011.9 - 0.0
28/03:00pm 29.7 26.2 10.8 31 10.8 E 20 35 11 19 1011.9 1011.8 0.0
28/02:30pm 30.1 26.3 11.1 31 10.9 ESE 22 37 12 20 1012.1 - 0.0
28/02:00pm 30.4 27.2 11.9 32 10.8 ESE 20 33 11 18 1012.7 - 0.0
28/01:30pm 30.2 26.6 11.7 32 10.8 E 22 41 12 22 1012.9 - 0.0
28/01:00pm 29.8 26.8 11.8 33 10.5 ESE 19 35 10 19 1013.4 - 0.0
28/12:30pm 29.1 25.3 12.5 36 9.7 SE 24 41 13 22 1013.8 - 0.0
28/12:19pm 28.9 24.2 11.9 35 9.9 ESE 28 46 15 25 1013.9 - 0.0
28/12:00pm 28.7 24.3 11.7 35 9.8 ESE 26 43 14 23 1014.2 1014.1 0.0
28/11:42am 28.6 24.5 13.7 40 8.9 ESE 28 46 15 25 1014.3 - 0.0
28/11:30am 28.4 25.8 13.9 41 8.7 ESE 20 33 11 18 1014.4 - 0.0
28/11:00am 27.7 24.0 14.0 43 8.2 ESE 26 43 14 23 1014.6 - 0.0
28/10:47am 27.1 22.9 13.4 42 8.1 SE 28 48 15 26 1014.7 - 0.0
28/10:30am 27.1 24.0 14.5 46 7.6 ESE 24 43 13 23 1014.9 - 0.0
28/10:00am 25.5 23.9 16.6 58 5.5 SE 20 33 11 18 1015.2 - 0.0
28/09:30am 24.1 23.1 17.6 67 4.0 SE 19 35 10 19 1015.4 - 0.0
28/09:00am 22.9 23.4 19.3 80 2.3 SE 15 24 8 13 1015.4 1015.3 0.0
28/08:30am 21.2 21.9 19.7 91 1.0 SE 15 22 8 12 1015.2 - 0.0
28/08:00am 19.8 21.0 19.8 100 0.0 SE 13 20 7 11 1015.2 - 0.0
28/07:30am 18.6 19.6 18.6 100 0.0 SSE 11 19 6 10 1015.0 - 0.0
28/07:00am 17.3 18.1 17.3 100 0.0 SE 9 11 5 6 1014.8 - 0.0
28/06:30am 17.2 18.5 17.2 100 0.0 SE 6 9 3 5 1014.3 - 0.0
28/06:00am 17.8 18.8 17.8 100 0.0 SE 9 15 5 8 1014.2 1014.1 0.0
28/05:30am 17.9 18.5 17.7 99 0.1 SSE 11 17 6 9 1014.1 - 0.0
28/05:00am 17.4 18.2 17.2 99 0.1 SSE 9 13 5 7 1014.0 - 0.0
28/04:30am 17.1 17.6 16.5 96 0.4 SSE 9 13 5 7 1014.1 - 0.0
28/04:00am 17.5 18.0 16.5 94 0.6 SSE 9 13 5 7 1014.1 - 0.0
28/03:30am 17.9 18.0 16.4 91 0.9 SSE 11 13 6 7 1014.1 - 0.0
28/03:00am 18.4 18.5 16.6 89 1.1 SSE 11 15 6 8 1014.0 1013.9 0.0
28/02:30am 18.9 18.7 16.7 87 1.3 SSE 13 19 7 10 1014.1 - 0.0
28/02:00am 19.1 18.8 16.5 85 1.6 S 13 17 7 9 1014.4 - 0.0
28/01:30am 19.4 18.8 16.6 84 1.7 SSE 15 20 8 11 1014.4 - 0.0
28/01:00am 19.7 19.4 16.5 82 1.9 SSE 13 20 7 11 1014.6 - 0.0
28/12:30am 20.2 19.6 16.6 80 2.2 S 15 22 8 12 1015.0 - 0.0
28/12:00am 20.8 20.7 17.0 79 2.3 S 13 19 7 10 1015.3 1015.2 0.0
 
Date/Time
CST
Temp
°C
App
Temp
°C
Dew
Point
Rel
Hum
%
Delta-T
°C
Wind Press
QNH
hPa
Press
MSL
hPa
Rain
since 9 am
mm
Dir
 
Spd
km/h
Gust
km/h
Spd
kts
Gust
kts
27/11:30pm 21.3 21.3 17.1 77 2.6 SE 13 22 7 12 1015.5 - 0.0
27/11:00pm 21.5 21.5 17.1 76 2.7 SE 13 19 7 10 1015.3 - 0.0
27/10:30pm 21.8 21.8 17.2 75 2.8 SSE 13 22 7 12 1015.3 - 0.0
27/10:00pm 22.2 22.6 17.3 74 3.0 SE 11 17 6 9 1015.4 - 0.0
27/09:30pm 22.7 22.9 17.6 73 3.2 SE 13 20 7 11 1015.2 - 0.0
27/09:00pm 23.2 23.1 17.9 72 3.3 SE 15 26 8 14 1014.9 1014.8 0.0
27/08:30pm 23.4 23.6 17.6 70 3.6 ESE 13 20 7 11 1014.6 - 0.0
27/08:00pm 24.2 23.7 17.0 64 4.4 ESE 15 24 8 13 1014.2 - 0.0
27/07:30pm 24.4 23.9 15.9 59 5.2 ESE 13 20 7 11 1013.7 - 0.0
27/07:00pm 25.0 24.6 16.2 58 5.4 ESE 13 24 7 13 1013.3 - 0.0
27/06:30pm 25.7 25.1 15.7 54 6.1 E 13 22 7 12 1012.8 - 0.0
27/06:00pm 26.7 25.3 14.5 47 7.3 ESE 15 24 8 13 1012.2 1012.1 0.0
27/05:30pm 27.8 25.7 13.7 42 8.4 E 17 32 9 17 1011.9 - 0.0
27/05:00pm 28.4 25.7 13.5 40 8.8 E 20 33 11 18 1011.7 - 0.0
27/04:30pm 29.0 26.8 14.8 42 8.6 ESE 20 33 11 18 1011.6 - 0.0
27/04:00pm 29.4 27.1 14.0 39 9.3 ESE 19 28 10 15 1011.5 - 0.0
27/03:30pm 29.9 27.4 14.0 37 9.6 ESE 20 35 11 19 1011.6 - 0.0
27/03:00pm 29.9 27.0 14.0 37 9.6 E 22 37 12 20 1011.5 1011.4 0.0
27/02:30pm 29.9 27.4 14.0 37 9.6 ESE 20 33 11 18 1011.7 - 0.0
27/02:00pm 29.9 26.6 14.0 37 9.6 ESE 24 43 13 23 1012.1 - 0.0
27/01:30pm 29.4 25.5 14.4 40 9.1 ESE 28 41 15 22 1012.3 - 0.0
27/01:00pm 29.8 26.8 14.7 39 9.2 SE 24 37 13 20 1012.6 - 0.0
27/12:30pm 29.4 26.6 14.4 40 9.1 ESE 22 41 12 22 1013.1 - 0.0
27/12:00pm 28.7 24.7 14.1 40 8.8 ESE 28 50 15 27 1013.3 1013.2 0.0
27/11:49am 28.5 24.2 14.3 41 8.5 SE 30 48 16 26 1013.3 - 0.0
27/11:30am 28.9 26.4 15.1 43 8.4 ESE 22 33 12 18 1013.6 - 0.0
27/11:00am 28.9 26.0 13.9 39 9.0 E 22 35 12 19 1013.9 - 0.0
27/10:30am 27.7 24.7 13.6 42 8.4 SE 22 33 12 18 1014.2 - 0.0
27/10:00am 26.7 24.6 15.1 49 7.0 SE 20 35 11 19 1014.4 - 0.0

Other Formats:

Comma delimited format used in spreadsheet applications
http://www.bom.gov.au/fwo/IDD60801/IDD60801.95146.axf

JavaScript Object Notation format (JSON) in row-major order
http://www.bom.gov.au/fwo/IDD60801/IDD60801.95146.json